createdAt,value
2022-09-07T00:01:10.641Z,18.10
2022-09-07T00:03:37.276Z,18.10
2022-09-07T00:06:12.317Z,18.10
2022-09-07T00:08:40.416Z,18.10
2022-09-07T00:11:11.419Z,18.10
2022-09-07T00:13:39.886Z,18.10
2022-09-07T00:16:18.685Z,18.10
2022-09-07T00:18:46.427Z,18.10
2022-09-07T00:21:15.528Z,18.10
2022-09-07T00:23:42.478Z,18.10
2022-09-07T00:26:11.847Z,18.10
2022-09-07T00:28:39.480Z,18.10
2022-09-07T00:31:11.341Z,18.00
2022-09-07T00:33:38.206Z,18.00
2022-09-07T00:36:05.029Z,18.00
2022-09-07T00:38:31.825Z,18.00
2022-09-07T00:40:58.715Z,18.00
2022-09-07T00:43:46.976Z,18.00
2022-09-07T00:46:17.700Z,17.90
2022-09-07T00:49:02.267Z,17.90
2022-09-07T00:51:44.777Z,17.80
2022-09-07T00:54:19.162Z,17.70
2022-09-07T00:56:47.372Z,17.70
2022-09-07T00:59:17.596Z,17.70
2022-09-07T01:01:45.321Z,17.70
2022-09-07T01:04:12.702Z,17.70
2022-09-07T01:06:39.964Z,17.70
2022-09-07T01:09:12.658Z,17.70
2022-09-07T01:11:40.012Z,17.70
2022-09-07T01:14:09.843Z,17.60
2022-09-07T01:16:51.846Z,17.60
2022-09-07T01:19:21.548Z,17.60
2022-09-07T01:22:06.149Z,17.50
2022-09-07T01:25:12.097Z,17.60
2022-09-07T01:27:56.685Z,17.50
2022-09-07T01:30:24.796Z,17.50
2022-09-07T01:33:16.887Z,17.50
2022-09-07T01:36:08.702Z,17.40
2022-09-07T01:38:41.473Z,17.40
2022-09-07T01:41:22.895Z,17.40
2022-09-07T01:44:04.235Z,17.40
2022-09-07T01:46:42.931Z,17.40
2022-09-07T01:49:35.995Z,17.40
2022-09-07T01:52:10.213Z,17.40
2022-09-07T01:54:46.412Z,17.30
2022-09-07T01:57:26.520Z,17.30
2022-09-07T01:59:57.320Z,17.30
2022-09-07T02:02:30.737Z,17.30
2022-09-07T02:05:18.641Z,17.30
2022-09-07T02:08:06.927Z,17.30
2022-09-07T02:10:54.752Z,17.30
2022-09-07T02:13:29.458Z,17.30
2022-09-07T02:16:06.869Z,17.20
2022-09-07T02:18:38.820Z,17.30
2022-09-07T02:21:08.720Z,17.20
2022-09-07T02:23:40.794Z,17.20
2022-09-07T02:26:15.170Z,17.20
2022-09-07T02:28:42.154Z,17.10
2022-09-07T02:31:08.932Z,17.10
2022-09-07T02:33:35.857Z,17.10
2022-09-07T02:36:04.464Z,17.10
2022-09-07T02:38:32.752Z,17.10
2022-09-07T02:41:01.029Z,17.00
2022-09-07T02:43:28.702Z,17.10
2022-09-07T02:46:28.195Z,17.10
2022-09-07T02:49:09.016Z,17.10
2022-09-07T02:52:10.189Z,17.10
2022-09-07T02:54:45.796Z,17.10
2022-09-07T02:57:43.135Z,17.10
2022-09-07T03:00:12.988Z,17.10
2022-09-07T03:03:20.940Z,17.10
2022-09-07T03:05:50.111Z,17.10
2022-09-07T03:08:31.425Z,17.00
2022-09-07T03:10:59.189Z,17.10
2022-09-07T03:13:28.126Z,17.00
2022-09-07T03:15:56.501Z,17.00
2022-09-07T03:18:24.494Z,17.00
2022-09-07T03:20:51.524Z,17.00
2022-09-07T03:23:18.387Z,17.00
2022-09-07T03:25:45.332Z,17.00
2022-09-07T03:28:12.027Z,17.00
2022-09-07T03:30:43.936Z,17.00
2022-09-07T03:33:11.260Z,16.90
2022-09-07T03:35:37.866Z,16.90
2022-09-07T03:38:04.478Z,16.90
2022-09-07T03:40:32.192Z,16.90
2022-09-07T03:42:58.849Z,16.90
2022-09-07T03:45:29.748Z,16.90
2022-09-07T03:47:56.645Z,16.90
2022-09-07T03:50:23.235Z,16.90
2022-09-07T03:52:49.831Z,16.90
2022-09-07T03:55:16.496Z,16.90
2022-09-07T03:57:43.499Z,16.90
2022-09-07T04:00:10.860Z,16.90
2022-09-07T04:02:37.550Z,16.90
2022-09-07T04:05:04.459Z,16.80
2022-09-07T04:07:31.070Z,16.80
2022-09-07T04:09:57.659Z,16.80
2022-09-07T04:12:25.973Z,16.80
2022-09-07T04:14:52.590Z,16.80
2022-09-07T04:17:19.199Z,16.90
2022-09-07T04:19:45.831Z,16.90
2022-09-07T04:22:12.431Z,16.80
2022-09-07T04:24:39.050Z,16.90
2022-09-07T04:27:05.691Z,16.80
2022-09-07T04:29:32.294Z,16.90
2022-09-07T04:31:58.924Z,16.90
2022-09-07T04:34:25.587Z,16.90
2022-09-07T04:36:52.276Z,16.90
2022-09-07T04:39:18.891Z,16.90
2022-09-07T04:41:45.550Z,16.90
2022-09-07T04:44:16.625Z,16.90
2022-09-07T04:46:43.503Z,16.90
2022-09-07T04:49:11.891Z,16.80
2022-09-07T04:51:39.996Z,16.90
2022-09-07T04:54:07.249Z,16.80
2022-09-07T04:56:34.215Z,16.90
2022-09-07T04:59:01.939Z,16.90
2022-09-07T05:01:28.999Z,16.80
2022-09-07T05:03:55.932Z,16.80
2022-09-07T05:06:23.415Z,16.90
2022-09-07T05:08:52.382Z,16.90
2022-09-07T05:11:21.201Z,16.70
2022-09-07T05:13:49.741Z,16.70
2022-09-07T05:16:18.765Z,16.70
2022-09-07T05:18:49.510Z,16.70
2022-09-07T05:21:18.823Z,16.80
2022-09-07T05:23:49.175Z,16.90
2022-09-07T05:26:15.878Z,16.90
2022-09-07T05:28:43.210Z,17.00
2022-09-07T05:31:19.071Z,17.00
2022-09-07T05:36:35.472Z,17.10
2022-09-07T05:39:02.116Z,17.10
2022-09-07T05:41:28.921Z,17.10
2022-09-07T05:46:42.646Z,17.20
2022-09-07T05:49:09.894Z,17.20
2022-09-07T05:51:37.188Z,17.20
2022-09-07T05:54:04.128Z,17.20
2022-09-07T05:56:33.247Z,17.20
2022-09-07T05:58:59.840Z,17.20
2022-09-07T06:01:26.528Z,17.30
2022-09-07T06:03:53.143Z,17.40
2022-09-07T06:06:19.791Z,17.30
2022-09-07T06:08:51.496Z,17.30
2022-09-07T06:11:22.293Z,17.40
2022-09-07T06:13:49.235Z,17.40
2022-09-07T06:16:17.073Z,17.40
2022-09-07T06:18:45.883Z,17.40
2022-09-07T06:21:14.468Z,17.40
2022-09-07T06:23:42.687Z,17.30
2022-09-07T06:26:10.300Z,17.40
2022-09-07T06:28:39.303Z,17.40
2022-09-07T06:31:12.829Z,17.40
2022-09-07T06:33:40.451Z,17.30
2022-09-07T06:36:14.291Z,17.40
2022-09-07T06:38:41.229Z,17.40
2022-09-07T06:43:58.292Z,17.40
2022-09-07T06:49:12.636Z,17.40
2022-09-07T06:51:39.232Z,17.50
2022-09-07T06:56:52.715Z,17.50
2022-09-07T06:59:19.442Z,17.40
2022-09-07T07:01:46.083Z,17.40
2022-09-07T07:04:13.225Z,17.40
2022-09-07T07:06:39.961Z,17.40
2022-09-07T07:09:08.586Z,17.40
2022-09-07T07:11:37.112Z,17.30
2022-09-07T07:14:04.109Z,17.20
2022-09-07T07:16:31.034Z,17.20
2022-09-07T07:18:57.915Z,17.30
2022-09-07T07:21:24.633Z,17.30
2022-09-07T07:23:52.749Z,17.30
2022-09-07T07:26:21.631Z,17.30
2022-09-07T07:29:06.069Z,17.30
2022-09-07T07:31:33.612Z,17.20
2022-09-07T07:34:00.342Z,17.20
2022-09-07T07:36:28.056Z,17.10
2022-09-07T07:44:18.400Z,17.10
2022-09-07T07:46:51.284Z,17.10
2022-09-07T07:49:18.322Z,17.20
2022-09-07T07:54:36.000Z,17.20
2022-09-07T07:57:03.896Z,17.20
2022-09-07T07:59:30.771Z,17.20
2022-09-07T08:01:57.474Z,17.10
2022-09-07T08:04:24.134Z,17.10
2022-09-07T08:06:50.716Z,17.00
2022-09-07T08:09:17.427Z,16.80
2022-09-07T08:11:43.988Z,16.70
2022-09-07T08:14:10.556Z,16.70
2022-09-07T08:16:37.564Z,16.70
2022-09-07T08:19:05.548Z,16.80
2022-09-07T08:21:32.083Z,16.80
2022-09-07T08:23:59.811Z,16.80
2022-09-07T08:26:27.155Z,16.90
2022-09-07T08:28:53.837Z,16.90
2022-09-07T08:31:20.462Z,16.90
2022-09-07T08:33:47.113Z,16.80
2022-09-07T08:36:21.227Z,16.80
2022-09-07T08:38:48.125Z,16.70
2022-09-07T08:41:52.528Z,16.70
2022-09-07T08:44:24.641Z,16.80
2022-09-07T08:46:58.975Z,16.80
2022-09-07T08:49:31.387Z,16.80
2022-09-07T08:52:26.004Z,16.80
2022-09-07T08:55:09.452Z,16.90
2022-09-07T08:57:41.441Z,16.90
2022-09-07T09:00:14.049Z,17.00
2022-09-07T09:05:31.858Z,17.10
2022-09-07T09:06:11.612Z,17.00
2022-09-07T09:08:18.090Z,17.10
2022-09-07T09:10:53.372Z,17.20
2022-09-07T09:13:43.567Z,17.20
2022-09-07T09:16:29.364Z,17.20
2022-09-07T09:19:27.677Z,17.20
2022-09-07T09:22:09.520Z,17.30
2022-09-07T09:24:41.020Z,17.30
2022-09-07T09:27:09.696Z,17.30
2022-09-07T09:29:36.236Z,17.30
2022-09-07T09:32:33.288Z,17.20
2022-09-07T09:35:10.180Z,17.20
2022-09-07T09:37:38.244Z,17.20
2022-09-07T09:40:09.260Z,17.20
2022-09-07T09:42:38.701Z,17.20
2022-09-07T09:45:16.316Z,17.20
2022-09-07T09:47:50.157Z,17.30
2022-09-07T09:53:57.642Z,17.40
2022-09-07T09:56:40.111Z,17.50
2022-09-07T10:05:26.356Z,17.90
2022-09-07T10:07:53.744Z,18.00
2022-09-07T10:10:20.784Z,18.10
2022-09-07T10:12:47.423Z,18.20
2022-09-07T10:15:39.708Z,18.30
2022-09-07T10:18:16.163Z,18.30
2022-09-07T10:20:42.687Z,18.40
2022-09-07T10:23:23.133Z,18.60
2022-09-07T10:25:49.675Z,18.60
2022-09-07T10:28:21.794Z,18.70
2022-09-07T10:31:15.846Z,18.90
2022-09-07T10:36:59.204Z,18.90
2022-09-07T10:39:31.039Z,18.90
2022-09-07T10:42:09.530Z,18.90
2022-09-07T10:44:57.947Z,18.90
2022-09-07T10:47:34.627Z,19.00
2022-09-07T10:53:43.415Z,19.20
2022-09-07T10:56:30.107Z,19.30
2022-09-07T10:59:20.184Z,19.50
2022-09-07T11:02:16.328Z,19.60
2022-09-07T11:04:58.972Z,19.80
2022-09-07T11:07:43.952Z,19.80
2022-09-07T11:10:16.442Z,19.90
2022-09-07T11:12:45.116Z,20.00
2022-09-07T11:15:17.933Z,20.10
2022-09-07T11:17:52.776Z,20.20
2022-09-07T11:20:33.299Z,20.30
2022-09-07T11:23:25.976Z,20.30
2022-09-07T11:25:52.448Z,20.30
2022-09-07T11:28:27.088Z,20.50
2022-09-07T11:31:00.594Z,20.60
2022-09-07T11:33:27.225Z,20.70
2022-09-07T11:36:02.175Z,20.80
2022-09-07T11:38:39.368Z,20.80
2022-09-07T11:41:34.233Z,21.00
2022-09-07T11:44:04.344Z,21.10
2022-09-07T11:46:41.320Z,21.20
2022-09-07T11:49:16.292Z,21.30
2022-09-07T11:51:53.690Z,21.50
2022-09-07T11:54:26.242Z,21.50
2022-09-07T11:57:36.676Z,21.50
2022-09-07T12:00:08.302Z,21.50
2022-09-07T12:03:01.063Z,21.50
2022-09-07T12:06:01.957Z,21.60
2022-09-07T12:08:43.477Z,21.70
2022-09-07T12:11:33.533Z,21.80
2022-09-07T12:14:15.192Z,21.90
2022-09-07T12:17:15.579Z,22.10
2022-09-07T12:19:42.617Z,22.20
2022-09-07T12:22:22.420Z,22.40
2022-09-07T12:24:53.736Z,22.50
2022-09-07T12:27:20.239Z,22.70
2022-09-07T12:29:47.987Z,22.90
2022-09-07T12:32:54.823Z,23.10
2022-09-07T12:35:28.286Z,23.20
2022-09-07T12:37:56.603Z,23.40
2022-09-07T12:40:29.501Z,23.50
2022-09-07T12:43:14.594Z,23.60
2022-09-07T12:45:41.857Z,23.70
2022-09-07T12:48:33.196Z,24.00
2022-09-07T12:51:12.303Z,24.10
2022-09-07T12:53:42.019Z,24.30
2022-09-07T12:56:43.886Z,24.30
2022-09-07T12:59:38.252Z,24.40
2022-09-07T13:02:32.012Z,24.60
2022-09-07T13:05:24.988Z,24.70
2022-09-07T13:08:29.134Z,24.80
2022-09-07T13:10:55.748Z,24.90
2022-09-07T13:16:27.876Z,25.30
2022-09-07T13:18:54.500Z,25.50
2022-09-07T13:21:37.009Z,25.50
2022-09-07T13:27:26.507Z,25.80
2022-09-07T13:30:24.746Z,26.00
2022-09-07T13:35:39.015Z,26.10
2022-09-07T13:38:05.632Z,26.10
2022-09-07T13:40:37.616Z,26.20
2022-09-07T13:43:05.400Z,26.30
2022-09-07T13:45:45.371Z,26.20
2022-09-07T13:48:37.593Z,26.30
2022-09-07T13:51:10.381Z,26.40
2022-09-07T13:54:28.998Z,26.60
2022-09-07T13:57:16.444Z,26.70
2022-09-07T13:59:43.270Z,26.90
2022-09-07T14:02:27.003Z,27.10
2022-09-07T14:04:55.560Z,27.30
2022-09-07T14:07:28.847Z,27.40
2022-09-07T14:10:26.024Z,27.40
2022-09-07T14:13:08.168Z,27.50
2022-09-07T14:15:42.247Z,27.60
2022-09-07T14:18:22.616Z,27.70
2022-09-07T14:20:51.319Z,27.70
2022-09-07T14:23:29.742Z,27.80
2022-09-07T14:26:18.946Z,27.90
2022-09-07T14:28:51.823Z,27.80
2022-09-07T14:31:25.727Z,27.70
2022-09-07T14:33:57.932Z,27.80
2022-09-07T14:36:47.701Z,27.90
2022-09-07T14:39:17.023Z,28.00
2022-09-07T14:41:44.498Z,27.80
2022-09-07T14:44:32.381Z,27.80
2022-09-07T14:47:02.735Z,27.80
2022-09-07T14:49:29.628Z,27.90
2022-09-07T14:51:56.876Z,28.00
2022-09-07T14:54:31.612Z,28.00
2022-09-07T14:57:02.632Z,28.00
2022-09-07T14:59:47.041Z,28.10
2022-09-07T15:02:21.726Z,28.00
2022-09-07T15:05:17.972Z,27.80
2022-09-07T15:07:54.287Z,27.80
2022-09-07T15:10:20.840Z,27.80
2022-09-07T15:12:49.318Z,27.70
2022-09-07T15:15:31.149Z,27.70
2022-09-07T15:18:05.852Z,27.60
2022-09-07T15:20:36.388Z,27.50
2022-09-07T15:23:14.353Z,27.50
2022-09-07T15:25:45.435Z,27.50
2022-09-07T15:34:02.184Z,27.60
2022-09-07T15:36:32.046Z,27.50
2022-09-07T15:39:00.857Z,27.50
2022-09-07T15:41:29.192Z,27.50
2022-09-07T15:43:56.807Z,27.40
2022-09-07T15:46:25.085Z,27.40
2022-09-07T15:48:54.649Z,27.40
2022-09-07T15:54:14.067Z,27.40
2022-09-07T15:56:42.713Z,27.30
2022-09-07T15:59:10.552Z,27.40
2022-09-07T16:01:54.646Z,27.30
2022-09-07T16:04:24.123Z,27.20
2022-09-07T16:06:50.940Z,27.30
2022-09-07T16:09:17.837Z,27.20
2022-09-07T16:11:50.178Z,27.20
2022-09-07T16:14:17.476Z,27.10
2022-09-07T16:19:34.625Z,26.90
2022-09-07T16:22:01.952Z,26.90
2022-09-07T16:24:28.644Z,26.70
2022-09-07T16:26:55.467Z,26.70
2022-09-07T16:29:22.047Z,26.70
2022-09-07T16:34:35.520Z,26.70
2022-09-07T16:37:02.686Z,26.60
2022-09-07T16:39:29.430Z,26.60
2022-09-07T16:41:56.200Z,26.50
2022-09-07T16:44:23.148Z,26.40
2022-09-07T16:46:50.642Z,26.40
2022-09-07T16:49:17.782Z,26.50
2022-09-07T16:51:45.626Z,26.60
2022-09-07T16:54:13.760Z,26.70
2022-09-07T16:56:40.294Z,26.70
2022-09-07T16:59:09.523Z,26.80
2022-09-07T17:01:40.114Z,26.80
2022-09-07T17:04:10.868Z,26.80
2022-09-07T17:06:38.641Z,26.80
2022-09-07T17:09:05.343Z,26.80
2022-09-07T17:11:36.420Z,26.60
2022-09-07T17:14:05.330Z,26.50
2022-09-07T17:16:39.173Z,26.40
2022-09-07T17:21:55.504Z,26.30
2022-09-07T17:24:24.001Z,26.40
2022-09-07T17:26:50.597Z,26.40
2022-09-07T17:29:17.235Z,26.50
2022-09-07T17:34:30.839Z,26.50
2022-09-07T17:36:57.636Z,26.50
2022-09-07T17:39:24.147Z,26.40
2022-09-07T17:41:54.350Z,26.20
2022-09-07T17:44:21.705Z,26.00
2022-09-07T17:46:48.244Z,25.90
2022-09-07T17:49:16.506Z,25.90
2022-09-07T17:51:44.529Z,25.90
2022-09-07T17:54:14.653Z,25.80
2022-09-07T17:56:43.050Z,25.50
2022-09-07T18:01:57.117Z,25.30
2022-09-07T18:04:24.519Z,25.30
2022-09-07T18:06:51.550Z,25.30
2022-09-07T18:09:19.525Z,25.30
2022-09-07T18:11:47.591Z,25.30
2022-09-07T18:14:15.460Z,25.40
2022-09-07T18:16:43.815Z,25.30
2022-09-07T18:19:11.711Z,25.30
2022-09-07T18:21:41.013Z,25.20
2022-09-07T18:24:16.706Z,25.20
2022-09-07T18:26:44.750Z,25.20
2022-09-07T18:29:28.120Z,25.20
2022-09-07T18:31:56.225Z,25.20
2022-09-07T18:34:23.381Z,25.20
2022-09-07T18:36:50.330Z,25.10
2022-09-07T18:39:16.933Z,25.00
2022-09-07T18:41:43.513Z,24.90
2022-09-07T18:46:56.783Z,24.80
2022-09-07T18:49:24.641Z,24.80
2022-09-07T18:54:38.894Z,24.80
2022-09-07T18:57:06.682Z,24.70
2022-09-07T18:59:34.231Z,24.70
2022-09-07T19:02:04.417Z,24.60
2022-09-07T19:07:24.998Z,24.60
2022-09-07T19:09:55.516Z,24.50
2022-09-07T19:12:22.204Z,24.40
2022-09-07T19:14:48.755Z,24.40
2022-09-07T19:17:15.256Z,24.40
2022-09-07T19:19:41.991Z,24.30
2022-09-07T19:22:08.535Z,24.30
2022-09-07T19:24:35.071Z,24.30
2022-09-07T19:27:01.629Z,24.30
2022-09-07T19:29:29.015Z,24.20
2022-09-07T19:32:05.003Z,24.10
2022-09-07T19:34:32.086Z,24.10
2022-09-07T19:36:59.089Z,24.00
2022-09-07T19:39:25.716Z,24.00
2022-09-07T19:41:52.289Z,24.10
2022-09-07T19:44:18.880Z,24.00
2022-09-07T19:46:45.476Z,23.90
2022-09-07T19:49:12.221Z,23.80
2022-09-07T19:51:40.097Z,23.80
2022-09-07T19:54:07.139Z,23.80
2022-09-07T19:56:36.425Z,23.80
2022-09-07T19:59:03.019Z,23.80
2022-09-07T20:01:29.653Z,23.90
2022-09-07T20:04:05.174Z,23.90
2022-09-07T20:06:33.555Z,23.80
2022-09-07T20:09:01.230Z,23.80
2022-09-07T20:11:28.792Z,23.80
2022-09-07T20:13:57.099Z,23.70
2022-09-07T20:16:25.321Z,23.70
2022-09-07T20:18:52.134Z,23.70
2022-09-07T20:21:23.583Z,23.70
2022-09-07T20:23:51.088Z,23.70
2022-09-07T20:26:19.689Z,23.60
2022-09-07T20:28:46.882Z,23.70
2022-09-07T20:31:15.712Z,23.60
2022-09-07T20:33:44.626Z,23.60
2022-09-07T20:36:13.595Z,23.50
2022-09-07T20:38:41.322Z,23.40
2022-09-07T20:41:12.684Z,23.30
2022-09-07T20:43:39.295Z,23.30
2022-09-07T20:46:06.056Z,23.30
2022-09-07T20:48:33.875Z,23.20
2022-09-07T20:51:03.656Z,23.20
2022-09-07T20:53:30.682Z,23.30
2022-09-07T20:56:03.190Z,23.20
2022-09-07T20:58:30.872Z,23.20
2022-09-07T21:00:57.682Z,23.20
2022-09-07T21:03:24.432Z,23.10
2022-09-07T21:05:51.251Z,23.20
2022-09-07T21:08:18.373Z,23.10
2022-09-07T21:10:46.618Z,23.10
2022-09-07T21:13:14.385Z,23.00
2022-09-07T21:15:42.714Z,23.00
2022-09-07T21:18:15.128Z,23.00
2022-09-07T21:20:52.816Z,23.00
2022-09-07T21:23:31.938Z,22.90
2022-09-07T21:25:58.609Z,22.90
2022-09-07T21:28:26.179Z,22.80
2022-09-07T21:31:01.978Z,22.70
2022-09-07T21:33:29.837Z,22.70
2022-09-07T21:36:02.404Z,22.70
2022-09-07T21:38:29.003Z,22.60
2022-09-07T21:40:55.754Z,22.50
2022-09-07T21:43:22.416Z,22.50
2022-09-07T21:45:49.476Z,22.50
2022-09-07T21:48:15.993Z,22.40
2022-09-07T21:50:42.604Z,22.40
2022-09-07T21:53:09.119Z,22.40
2022-09-07T21:55:35.819Z,22.30
2022-09-07T21:58:02.315Z,22.20
2022-09-07T22:00:29.040Z,22.10
2022-09-07T22:02:55.558Z,21.90
2022-09-07T22:05:22.093Z,21.90
2022-09-07T22:07:48.626Z,21.80
2022-09-07T22:10:15.200Z,21.70
2022-09-07T22:12:41.808Z,21.70
2022-09-07T22:15:08.740Z,21.60
2022-09-07T22:17:35.254Z,21.60
2022-09-07T22:20:02.308Z,21.50
2022-09-07T22:22:28.840Z,21.50
2022-09-07T22:24:55.362Z,21.50
2022-09-07T22:27:21.911Z,21.60
2022-09-07T22:29:48.487Z,21.60
2022-09-07T22:32:15.028Z,21.60
2022-09-07T22:34:41.575Z,21.50
2022-09-07T22:37:08.114Z,21.50
2022-09-07T22:39:34.734Z,21.50
2022-09-07T22:42:01.497Z,21.50
2022-09-07T22:44:28.772Z,21.50
2022-09-07T22:46:55.361Z,21.50
2022-09-07T22:49:22.084Z,21.50
2022-09-07T22:51:48.616Z,21.50
2022-09-07T22:54:15.155Z,21.40
2022-09-07T22:56:42.329Z,21.20
2022-09-07T22:59:09.556Z,21.00
2022-09-07T23:01:37.095Z,20.90
2022-09-07T23:04:04.984Z,20.90
2022-09-07T23:06:37.503Z,20.80
2022-09-07T23:09:07.756Z,20.80
2022-09-07T23:11:34.503Z,20.80
2022-09-07T23:14:04.875Z,20.80
2022-09-07T23:16:31.746Z,20.70
2022-09-07T23:18:59.232Z,20.60
2022-09-07T23:21:27.264Z,20.60
2022-09-07T23:23:56.741Z,20.60
2022-09-07T23:26:24.805Z,20.60
2022-09-07T23:28:52.988Z,20.60
2022-09-07T23:31:20.767Z,20.50
2022-09-07T23:33:47.695Z,20.50
2022-09-07T23:36:14.396Z,20.50
2022-09-07T23:38:40.967Z,20.50
2022-09-07T23:41:07.620Z,20.50
2022-09-07T23:43:34.211Z,20.50
2022-09-07T23:46:00.976Z,20.50
2022-09-07T23:48:28.164Z,20.40
2022-09-07T23:50:54.823Z,20.40
2022-09-07T23:53:22.276Z,20.30
2022-09-07T23:55:52.044Z,20.30
2022-09-07T23:58:20.423Z,20.30
